sensor_id;sensor_type;location;lat;lon;timestamp;temperature;humidity
336;DHT22;156;48.738;9.228;2022-10-15T00:02:08;13.80;99.90
336;DHT22;156;48.738;9.228;2022-10-15T00:04:35;13.80;99.90
336;DHT22;156;48.738;9.228;2022-10-15T00:07:02;13.80;99.90
336;DHT22;156;48.738;9.228;2022-10-15T00:09:29;13.80;99.90
336;DHT22;156;48.738;9.228;2022-10-15T00:11:55;13.80;99.90
336;DHT22;156;48.738;9.228;2022-10-15T00:14:22;13.80;99.90
336;DHT22;156;48.738;9.228;2022-10-15T00:16:49;13.90;99.90
336;DHT22;156;48.738;9.228;2022-10-15T00:19:18;13.90;99.90
336;DHT22;156;48.738;9.228;2022-10-15T00:21:44;13.90;99.90
336;DHT22;156;48.738;9.228;2022-10-15T00:24:11;13.90;99.90
336;DHT22;156;48.738;9.228;2022-10-15T00:26:38;13.90;99.90
336;DHT22;156;48.738;9.228;2022-10-15T00:29:05;13.90;99.90
336;DHT22;156;48.738;9.228;2022-10-15T00:31:32;13.90;99.90
336;DHT22;156;48.738;9.228;2022-10-15T00:34:00;13.90;99.90
336;DHT22;156;48.738;9.228;2022-10-15T00:36:30;14.00;99.90
336;DHT22;156;48.738;9.228;2022-10-15T00:38:59;13.90;99.90
336;DHT22;156;48.738;9.228;2022-10-15T00:41:28;13.90;99.90
336;DHT22;156;48.738;9.228;2022-10-15T00:43:57;14.00;99.90
336;DHT22;156;48.738;9.228;2022-10-15T00:46:27;14.00;99.90
336;DHT22;156;48.738;9.228;2022-10-15T00:48:58;14.00;99.90
336;DHT22;156;48.738;9.228;2022-10-15T00:51:30;14.00;99.90
336;DHT22;156;48.738;9.228;2022-10-15T00:53:59;14.00;99.90
336;DHT22;156;48.738;9.228;2022-10-15T00:56:27;14.00;99.90
336;DHT22;156;48.738;9.228;2022-10-15T00:58:56;14.00;99.90
336;DHT22;156;48.738;9.228;2022-10-15T01:01:24;13.90;99.90
336;DHT22;156;48.738;9.228;2022-10-15T01:03:51;14.00;99.90
336;DHT22;156;48.738;9.228;2022-10-15T01:06:19;14.00;99.90
336;DHT22;156;48.738;9.228;2022-10-15T01:08:47;14.00;99.90
336;DHT22;156;48.738;9.228;2022-10-15T01:11:26;14.00;99.90
336;DHT22;156;48.738;9.228;2022-10-15T01:13:59;14.00;99.90
336;DHT22;156;48.738;9.228;2022-10-15T01:16:33;14.00;99.90
336;DHT22;156;48.738;9.228;2022-10-15T01:19:06;14.00;99.90
336;DHT22;156;48.738;9.228;2022-10-15T01:21:41;14.00;99.90
336;DHT22;156;48.738;9.228;2022-10-15T01:27:26;14.10;99.90
336;DHT22;156;48.738;9.228;2022-10-15T01:33:23;14.10;99.90
336;DHT22;156;48.738;9.228;2022-10-15T01:35:55;14.00;99.90
336;DHT22;156;48.738;9.228;2022-10-15T01:38:32;14.00;99.90
336;DHT22;156;48.738;9.228;2022-10-15T01:41:08;14.00;99.90
336;DHT22;156;48.738;9.228;2022-10-15T01:43:42;14.00;99.90
336;DHT22;156;48.738;9.228;2022-10-15T01:46:13;14.00;99.90
336;DHT22;156;48.738;9.228;2022-10-15T01:48:43;14.00;99.90
336;DHT22;156;48.738;9.228;2022-10-15T01:51:11;14.00;99.90
336;DHT22;156;48.738;9.228;2022-10-15T01:53:40;14.00;99.90
336;DHT22;156;48.738;9.228;2022-10-15T01:56:19;14.00;99.90
336;DHT22;156;48.738;9.228;2022-10-15T01:58:48;14.00;99.90
336;DHT22;156;48.738;9.228;2022-10-15T02:01:16;14.00;99.90
336;DHT22;156;48.738;9.228;2022-10-15T02:03:45;14.00;99.90
336;DHT22;156;48.738;9.228;2022-10-15T02:06:16;14.10;99.90
336;DHT22;156;48.738;9.228;2022-10-15T02:08:56;14.10;99.90
336;DHT22;156;48.738;9.228;2022-10-15T02:11:24;14.10;99.90
336;DHT22;156;48.738;9.228;2022-10-15T02:13:56;14.10;99.90
336;DHT22;156;48.738;9.228;2022-10-15T02:16:29;14.20;99.90
336;DHT22;156;48.738;9.228;2022-10-15T02:19:02;14.10;99.90
336;DHT22;156;48.738;9.228;2022-10-15T02:21:36;14.10;99.90
336;DHT22;156;48.738;9.228;2022-10-15T02:24:08;14.10;99.90
336;DHT22;156;48.738;9.228;2022-10-15T02:26:36;14.10;99.90
336;DHT22;156;48.738;9.228;2022-10-15T02:29:07;14.10;99.90
336;DHT22;156;48.738;9.228;2022-10-15T02:31:38;14.10;99.90
336;DHT22;156;48.738;9.228;2022-10-15T02:34:10;14.10;99.90
336;DHT22;156;48.738;9.228;2022-10-15T02:36:39;14.20;99.90
336;DHT22;156;48.738;9.228;2022-10-15T02:39:09;14.20;99.90
336;DHT22;156;48.738;9.228;2022-10-15T02:41:38;14.20;99.90
336;DHT22;156;48.738;9.228;2022-10-15T02:44:05;14.20;99.90
336;DHT22;156;48.738;9.228;2022-10-15T02:46:32;14.20;99.90
336;DHT22;156;48.738;9.228;2022-10-15T02:48:59;14.30;99.90
336;DHT22;156;48.738;9.228;2022-10-15T02:51:30;14.30;99.90
336;DHT22;156;48.738;9.228;2022-10-15T02:53:57;14.30;99.90
336;DHT22;156;48.738;9.228;2022-10-15T02:56:24;14.20;99.90
336;DHT22;156;48.738;9.228;2022-10-15T02:58:51;14.30;99.90
336;DHT22;156;48.738;9.228;2022-10-15T03:01:18;14.30;99.90
336;DHT22;156;48.738;9.228;2022-10-15T03:03:45;14.30;99.90
336;DHT22;156;48.738;9.228;2022-10-15T03:06:12;14.30;99.90
336;DHT22;156;48.738;9.228;2022-10-15T03:08:41;14.40;99.90
336;DHT22;156;48.738;9.228;2022-10-15T03:11:09;14.30;99.90
336;DHT22;156;48.738;9.228;2022-10-15T03:13:36;14.30;99.90
336;DHT22;156;48.738;9.228;2022-10-15T03:16:03;14.40;99.90
336;DHT22;156;48.738;9.228;2022-10-15T03:18:30;14.40;99.90
336;DHT22;156;48.738;9.228;2022-10-15T03:20:57;14.40;99.90
336;DHT22;156;48.738;9.228;2022-10-15T03:23:25;14.40;99.90
336;DHT22;156;48.738;9.228;2022-10-15T03:25:53;14.40;99.90
336;DHT22;156;48.738;9.228;2022-10-15T03:28:20;14.40;99.90
336;DHT22;156;48.738;9.228;2022-10-15T03:30:47;14.40;99.90
336;DHT22;156;48.738;9.228;2022-10-15T03:33:14;14.50;99.90
336;DHT22;156;48.738;9.228;2022-10-15T03:35:41;14.50;99.90
336;DHT22;156;48.738;9.228;2022-10-15T03:38:08;14.50;99.90
336;DHT22;156;48.738;9.228;2022-10-15T03:40:35;14.50;99.90
336;DHT22;156;48.738;9.228;2022-10-15T03:43:03;14.50;99.90
336;DHT22;156;48.738;9.228;2022-10-15T03:45:31;14.50;99.90
336;DHT22;156;48.738;9.228;2022-10-15T03:47:58;14.50;99.90
336;DHT22;156;48.738;9.228;2022-10-15T03:50:25;14.60;99.90
336;DHT22;156;48.738;9.228;2022-10-15T03:52:52;14.60;99.90
336;DHT22;156;48.738;9.228;2022-10-15T03:55:19;14.60;99.90
336;DHT22;156;48.738;9.228;2022-10-15T03:57:46;14.60;99.90
336;DHT22;156;48.738;9.228;2022-10-15T04:00:15;14.60;99.90
336;DHT22;156;48.738;9.228;2022-10-15T04:02:42;14.60;99.90
336;DHT22;156;48.738;9.228;2022-10-15T04:05:09;14.60;99.90
336;DHT22;156;48.738;9.228;2022-10-15T04:07:37;14.60;99.90
336;DHT22;156;48.738;9.228;2022-10-15T04:10:04;14.70;99.90
336;DHT22;156;48.738;9.228;2022-10-15T04:12:33;14.70;99.90
336;DHT22;156;48.738;9.228;2022-10-15T04:15:01;14.70;99.90
336;DHT22;156;48.738;9.228;2022-10-15T04:17:29;14.70;99.90
336;DHT22;156;48.738;9.228;2022-10-15T04:19:56;14.70;99.90
336;DHT22;156;48.738;9.228;2022-10-15T04:22:23;14.70;99.90
336;DHT22;156;48.738;9.228;2022-10-15T04:24:50;14.70;99.90
336;DHT22;156;48.738;9.228;2022-10-15T04:27:18;14.80;99.90
336;DHT22;156;48.738;9.228;2022-10-15T04:29:46;14.80;99.90
336;DHT22;156;48.738;9.228;2022-10-15T04:32:14;14.80;99.90
336;DHT22;156;48.738;9.228;2022-10-15T04:34:45;14.80;99.90
336;DHT22;156;48.738;9.228;2022-10-15T04:37:11;14.80;99.90
336;DHT22;156;48.738;9.228;2022-10-15T04:39:39;14.80;99.90
336;DHT22;156;48.738;9.228;2022-10-15T04:42:07;14.80;99.90
336;DHT22;156;48.738;9.228;2022-10-15T04:44:34;14.90;99.90
336;DHT22;156;48.738;9.228;2022-10-15T04:47:01;14.90;99.90
336;DHT22;156;48.738;9.228;2022-10-15T04:49:28;14.90;99.90
336;DHT22;156;48.738;9.228;2022-10-15T04:51:57;14.80;99.90
336;DHT22;156;48.738;9.228;2022-10-15T04:54:24;14.90;99.90
336;DHT22;156;48.738;9.228;2022-10-15T04:56:51;14.90;99.90
336;DHT22;156;48.738;9.228;2022-10-15T04:59:18;14.80;99.90
336;DHT22;156;48.738;9.228;2022-10-15T05:01:45;14.80;99.90
336;DHT22;156;48.738;9.228;2022-10-15T05:04:13;14.80;99.90
336;DHT22;156;48.738;9.228;2022-10-15T05:06:40;14.80;99.90
336;DHT22;156;48.738;9.228;2022-10-15T05:09:10;14.80;99.90
336;DHT22;156;48.738;9.228;2022-10-15T05:11:37;14.90;99.90
336;DHT22;156;48.738;9.228;2022-10-15T05:14:04;14.90;99.90
336;DHT22;156;48.738;9.228;2022-10-15T05:16:32;14.90;99.90
336;DHT22;156;48.738;9.228;2022-10-15T05:19:01;14.90;99.90
336;DHT22;156;48.738;9.228;2022-10-15T05:21:28;14.90;99.90
336;DHT22;156;48.738;9.228;2022-10-15T05:23:56;15.00;99.90
336;DHT22;156;48.738;9.228;2022-10-15T05:26:26;14.90;99.90
336;DHT22;156;48.738;9.228;2022-10-15T05:28:55;14.90;99.90
336;DHT22;156;48.738;9.228;2022-10-15T05:31:23;14.90;99.90
336;DHT22;156;48.738;9.228;2022-10-15T05:33:51;14.90;99.90
336;DHT22;156;48.738;9.228;2022-10-15T05:36:20;14.90;99.90
336;DHT22;156;48.738;9.228;2022-10-15T05:38:49;14.90;99.90
336;DHT22;156;48.738;9.228;2022-10-15T05:41:16;14.80;99.90
336;DHT22;156;48.738;9.228;2022-10-15T05:43:45;14.80;99.90
336;DHT22;156;48.738;9.228;2022-10-15T05:46:12;14.80;99.90
336;DHT22;156;48.738;9.228;2022-10-15T05:48:39;14.80;99.90
336;DHT22;156;48.738;9.228;2022-10-15T05:51:07;14.90;99.90
336;DHT22;156;48.738;9.228;2022-10-15T05:53:36;14.80;99.90
336;DHT22;156;48.738;9.228;2022-10-15T05:56:04;14.80;99.90
336;DHT22;156;48.738;9.228;2022-10-15T05:58:32;14.80;99.90
336;DHT22;156;48.738;9.228;2022-10-15T06:01:02;14.80;99.90
336;DHT22;156;48.738;9.228;2022-10-15T06:03:30;14.70;99.90
336;DHT22;156;48.738;9.228;2022-10-15T06:05:57;14.80;99.90
336;DHT22;156;48.738;9.228;2022-10-15T06:08:24;14.80;99.90
336;DHT22;156;48.738;9.228;2022-10-15T06:10:50;14.70;99.90
336;DHT22;156;48.738;9.228;2022-10-15T06:13:17;14.70;99.90
336;DHT22;156;48.738;9.228;2022-10-15T06:15:45;14.70;99.90
336;DHT22;156;48.738;9.228;2022-10-15T06:18:13;14.70;99.90
336;DHT22;156;48.738;9.228;2022-10-15T06:20:41;14.80;99.90
336;DHT22;156;48.738;9.228;2022-10-15T06:23:10;14.80;99.90
336;DHT22;156;48.738;9.228;2022-10-15T06:25:37;14.80;99.90
336;DHT22;156;48.738;9.228;2022-10-15T06:28:05;14.80;99.90
336;DHT22;156;48.738;9.228;2022-10-15T06:30:35;14.80;99.90
336;DHT22;156;48.738;9.228;2022-10-15T06:33:02;14.70;99.90
336;DHT22;156;48.738;9.228;2022-10-15T06:35:31;14.70;99.90
336;DHT22;156;48.738;9.228;2022-10-15T06:38:00;14.70;99.90
336;DHT22;156;48.738;9.228;2022-10-15T06:40:28;14.70;99.90
336;DHT22;156;48.738;9.228;2022-10-15T06:42:55;14.70;99.90
336;DHT22;156;48.738;9.228;2022-10-15T06:45:21;14.60;99.90
336;DHT22;156;48.738;9.228;2022-10-15T06:47:48;14.70;99.90
336;DHT22;156;48.738;9.228;2022-10-15T06:50:15;14.60;99.90
336;DHT22;156;48.738;9.228;2022-10-15T06:52:43;14.60;99.90
336;DHT22;156;48.738;9.228;2022-10-15T06:55:10;14.60;99.90
336;DHT22;156;48.738;9.228;2022-10-15T06:57:37;14.60;99.90
336;DHT22;156;48.738;9.228;2022-10-15T07:00:05;14.60;99.90
336;DHT22;156;48.738;9.228;2022-10-15T07:02:34;14.60;99.90
336;DHT22;156;48.738;9.228;2022-10-15T07:05:01;14.60;99.90
336;DHT22;156;48.738;9.228;2022-10-15T07:07:27;14.60;99.90
336;DHT22;156;48.738;9.228;2022-10-15T07:09:56;14.50;99.90
336;DHT22;156;48.738;9.228;2022-10-15T07:12:23;14.60;99.90
336;DHT22;156;48.738;9.228;2022-10-15T07:14:50;14.60;99.90
336;DHT22;156;48.738;9.228;2022-10-15T07:17:17;14.60;99.90
336;DHT22;156;48.738;9.228;2022-10-15T07:19:44;14.60;99.90
336;DHT22;156;48.738;9.228;2022-10-15T07:22:11;14.60;99.90
336;DHT22;156;48.738;9.228;2022-10-15T07:24:38;14.60;99.90
336;DHT22;156;48.738;9.228;2022-10-15T07:27:06;14.70;99.90
336;DHT22;156;48.738;9.228;2022-10-15T07:29:33;14.70;99.90
336;DHT22;156;48.738;9.228;2022-10-15T07:32:00;14.70;99.90
336;DHT22;156;48.738;9.228;2022-10-15T07:34:28;14.70;99.90
336;DHT22;156;48.738;9.228;2022-10-15T07:36:55;14.70;99.90
336;DHT22;156;48.738;9.228;2022-10-15T07:39:22;14.80;99.90
336;DHT22;156;48.738;9.228;2022-10-15T07:41:49;14.80;99.90
336;DHT22;156;48.738;9.228;2022-10-15T07:44:18;14.90;99.90
336;DHT22;156;48.738;9.228;2022-10-15T07:46:46;14.90;99.90
336;DHT22;156;48.738;9.228;2022-10-15T07:49:13;14.80;99.90
336;DHT22;156;48.738;9.228;2022-10-15T07:51:41;14.90;99.90
336;DHT22;156;48.738;9.228;2022-10-15T07:54:08;14.90;99.90
336;DHT22;156;48.738;9.228;2022-10-15T07:56:35;14.80;99.90
336;DHT22;156;48.738;9.228;2022-10-15T07:59:02;14.90;99.90
336;DHT22;156;48.738;9.228;2022-10-15T08:01:30;14.90;99.90
336;DHT22;156;48.738;9.228;2022-10-15T08:03:57;14.90;99.90
336;DHT22;156;48.738;9.228;2022-10-15T08:06:24;14.80;99.90
336;DHT22;156;48.738;9.228;2022-10-15T08:08:51;14.80;99.90
336;DHT22;156;48.738;9.228;2022-10-15T08:11:18;14.90;99.90
336;DHT22;156;48.738;9.228;2022-10-15T08:13:46;15.00;99.90
336;DHT22;156;48.738;9.228;2022-10-15T08:16:14;15.10;99.90
336;DHT22;156;48.738;9.228;2022-10-15T08:18:45;15.00;99.90
336;DHT22;156;48.738;9.228;2022-10-15T08:21:12;15.10;99.90
336;DHT22;156;48.738;9.228;2022-10-15T08:23:39;15.00;99.90
336;DHT22;156;48.738;9.228;2022-10-15T08:26:06;15.00;99.90
336;DHT22;156;48.738;9.228;2022-10-15T08:28:34;15.00;99.90
336;DHT22;156;48.738;9.228;2022-10-15T08:31:01;15.00;99.90
336;DHT22;156;48.738;9.228;2022-10-15T08:33:28;15.10;99.90
336;DHT22;156;48.738;9.228;2022-10-15T08:35:57;15.10;99.90
336;DHT22;156;48.738;9.228;2022-10-15T08:38:24;15.20;99.90
336;DHT22;156;48.738;9.228;2022-10-15T08:40:52;15.30;99.90
336;DHT22;156;48.738;9.228;2022-10-15T08:43:24;15.40;99.90
336;DHT22;156;48.738;9.228;2022-10-15T08:45:58;15.50;99.90
336;DHT22;156;48.738;9.228;2022-10-15T08:48:29;15.60;99.90
336;DHT22;156;48.738;9.228;2022-10-15T08:51:01;15.70;99.90
336;DHT22;156;48.738;9.228;2022-10-15T08:53:37;15.70;99.90
336;DHT22;156;48.738;9.228;2022-10-15T08:56:12;15.70;99.90
336;DHT22;156;48.738;9.228;2022-10-15T08:58:46;15.80;99.90
336;DHT22;156;48.738;9.228;2022-10-15T09:01:21;15.70;99.90
336;DHT22;156;48.738;9.228;2022-10-15T09:03:55;15.80;99.90
336;DHT22;156;48.738;9.228;2022-10-15T09:06:29;15.80;99.90
336;DHT22;156;48.738;9.228;2022-10-15T09:09:04;15.70;99.90
336;DHT22;156;48.738;9.228;2022-10-15T09:11:40;15.80;99.90
336;DHT22;156;48.738;9.228;2022-10-15T09:14:14;15.90;99.90
336;DHT22;156;48.738;9.228;2022-10-15T09:16:44;16.00;99.90
336;DHT22;156;48.738;9.228;2022-10-15T09:19:14;16.00;99.90
336;DHT22;156;48.738;9.228;2022-10-15T09:21:44;16.00;99.90
336;DHT22;156;48.738;9.228;2022-10-15T09:24:19;15.90;99.90
336;DHT22;156;48.738;9.228;2022-10-15T09:26:54;15.90;99.90
336;DHT22;156;48.738;9.228;2022-10-15T09:29:30;15.80;99.90
336;DHT22;156;48.738;9.228;2022-10-15T09:32:07;15.80;99.90
336;DHT22;156;48.738;9.228;2022-10-15T09:34:40;15.80;99.90
336;DHT22;156;48.738;9.228;2022-10-15T09:37:15;15.90;99.90
336;DHT22;156;48.738;9.228;2022-10-15T09:39:56;16.00;99.90
336;DHT22;156;48.738;9.228;2022-10-15T09:42:28;16.10;99.90
336;DHT22;156;48.738;9.228;2022-10-15T09:44:58;16.10;99.90
336;DHT22;156;48.738;9.228;2022-10-15T09:47:28;16.20;99.90
336;DHT22;156;48.738;9.228;2022-10-15T09:49:55;16.30;99.90
336;DHT22;156;48.738;9.228;2022-10-15T09:52:34;16.30;99.90
336;DHT22;156;48.738;9.228;2022-10-15T09:55:13;16.40;99.90
336;DHT22;156;48.738;9.228;2022-10-15T09:57:47;16.60;99.90
336;DHT22;156;48.738;9.228;2022-10-15T10:00:16;16.80;99.90
336;DHT22;156;48.738;9.228;2022-10-15T10:02:42;16.80;99.90
336;DHT22;156;48.738;9.228;2022-10-15T10:05:26;16.90;99.90
336;DHT22;156;48.738;9.228;2022-10-15T10:08:06;16.90;99.90
336;DHT22;156;48.738;9.228;2022-10-15T10:10:36;16.90;99.90
336;DHT22;156;48.738;9.228;2022-10-15T10:13:08;16.90;99.90
336;DHT22;156;48.738;9.228;2022-10-15T10:15:45;16.90;99.90
336;DHT22;156;48.738;9.228;2022-10-15T10:18:18;16.80;99.90
336;DHT22;156;48.738;9.228;2022-10-15T10:20:53;16.90;99.90
336;DHT22;156;48.738;9.228;2022-10-15T10:23:34;16.90;99.90
336;DHT22;156;48.738;9.228;2022-10-15T10:26:05;16.80;99.90
336;DHT22;156;48.738;9.228;2022-10-15T10:28:35;17.10;99.90
336;DHT22;156;48.738;9.228;2022-10-15T10:31:05;17.20;99.90
336;DHT22;156;48.738;9.228;2022-10-15T10:33:36;17.10;99.90
336;DHT22;156;48.738;9.228;2022-10-15T10:36:05;17.10;99.90
336;DHT22;156;48.738;9.228;2022-10-15T10:38:36;17.30;99.90
336;DHT22;156;48.738;9.228;2022-10-15T10:41:05;17.30;99.90
336;DHT22;156;48.738;9.228;2022-10-15T10:43:35;17.30;99.90
336;DHT22;156;48.738;9.228;2022-10-15T10:46:04;17.40;99.90
336;DHT22;156;48.738;9.228;2022-10-15T10:48:41;17.40;99.90
336;DHT22;156;48.738;9.228;2022-10-15T10:51:12;17.60;99.90
336;DHT22;156;48.738;9.228;2022-10-15T10:53:50;17.60;99.90
336;DHT22;156;48.738;9.228;2022-10-15T10:56:21;17.60;99.90
336;DHT22;156;48.738;9.228;2022-10-15T10:58:54;17.80;99.90
336;DHT22;156;48.738;9.228;2022-10-15T11:01:22;17.80;99.90
336;DHT22;156;48.738;9.228;2022-10-15T11:03:49;17.90;99.90
336;DHT22;156;48.738;9.228;2022-10-15T11:06:30;17.90;99.90
336;DHT22;156;48.738;9.228;2022-10-15T11:09:16;17.90;99.90
336;DHT22;156;48.738;9.228;2022-10-15T11:11:57;17.70;99.90
336;DHT22;156;48.738;9.228;2022-10-15T11:14:32;17.80;99.90
336;DHT22;156;48.738;9.228;2022-10-15T11:17:09;17.90;99.90
336;DHT22;156;48.738;9.228;2022-10-15T11:19:42;18.00;99.90
336;DHT22;156;48.738;9.228;2022-10-15T11:22:37;18.00;99.90
336;DHT22;156;48.738;9.228;2022-10-15T11:25:15;18.20;99.00
336;DHT22;156;48.738;9.228;2022-10-15T11:27:54;18.10;94.20
336;DHT22;156;48.738;9.228;2022-10-15T11:30:31;18.00;99.90
336;DHT22;156;48.738;9.228;2022-10-15T11:33:20;17.90;96.90
336;DHT22;156;48.738;9.228;2022-10-15T11:35:58;17.70;95.90
336;DHT22;156;48.738;9.228;2022-10-15T11:38:38;17.70;96.50
336;DHT22;156;48.738;9.228;2022-10-15T11:41:24;17.70;99.90
336;DHT22;156;48.738;9.228;2022-10-15T11:44:04;17.80;99.90
336;DHT22;156;48.738;9.228;2022-10-15T11:46:56;17.70;99.90
336;DHT22;156;48.738;9.228;2022-10-15T11:49:40;17.70;99.90
336;DHT22;156;48.738;9.228;2022-10-15T11:52:31;17.50;99.90
336;DHT22;156;48.738;9.228;2022-10-15T11:55:17;17.70;99.90
336;DHT22;156;48.738;9.228;2022-10-15T11:57:48;17.60;99.90
336;DHT22;156;48.738;9.228;2022-10-15T12:00:40;17.70;98.90
336;DHT22;156;48.738;9.228;2022-10-15T12:03:14;17.80;98.70
336;DHT22;156;48.738;9.228;2022-10-15T12:05:45;17.70;98.10
336;DHT22;156;48.738;9.228;2022-10-15T12:08:16;17.70;98.10
336;DHT22;156;48.738;9.228;2022-10-15T12:10:54;17.80;99.90
336;DHT22;156;48.738;9.228;2022-10-15T12:13:30;17.90;96.60
336;DHT22;156;48.738;9.228;2022-10-15T12:16:14;17.70;93.70
336;DHT22;156;48.738;9.228;2022-10-15T12:18:46;17.50;95.70
336;DHT22;156;48.738;9.228;2022-10-15T12:21:36;17.50;94.80
336;DHT22;156;48.738;9.228;2022-10-15T12:26:49;17.40;96.30
336;DHT22;156;48.738;9.228;2022-10-15T12:29:20;17.60;97.60
336;DHT22;156;48.738;9.228;2022-10-15T12:31:50;17.60;95.50
336;DHT22;156;48.738;9.228;2022-10-15T12:34:28;17.60;97.00
336;DHT22;156;48.738;9.228;2022-10-15T12:37:03;17.60;95.90
336;DHT22;156;48.738;9.228;2022-10-15T12:39:31;17.50;95.60
336;DHT22;156;48.738;9.228;2022-10-15T12:41:59;17.30;94.80
336;DHT22;156;48.738;9.228;2022-10-15T12:44:29;17.40;98.00
336;DHT22;156;48.738;9.228;2022-10-15T12:46:58;17.20;99.90
336;DHT22;156;48.738;9.228;2022-10-15T12:49:44;17.20;99.90
336;DHT22;156;48.738;9.228;2022-10-15T12:55:22;17.10;99.90
336;DHT22;156;48.738;9.228;2022-10-15T12:57:55;17.00;99.90
336;DHT22;156;48.738;9.228;2022-10-15T13:00:38;17.10;99.90
336;DHT22;156;48.738;9.228;2022-10-15T13:03:32;17.00;99.90
336;DHT22;156;48.738;9.228;2022-10-15T13:06:25;16.90;99.90
336;DHT22;156;48.738;9.228;2022-10-15T13:08:58;16.90;99.90
336;DHT22;156;48.738;9.228;2022-10-15T13:11:29;16.90;99.90
336;DHT22;156;48.738;9.228;2022-10-15T13:13:58;16.90;99.90
336;DHT22;156;48.738;9.228;2022-10-15T13:16:28;16.90;99.90
336;DHT22;156;48.738;9.228;2022-10-15T13:18:56;16.90;99.90
336;DHT22;156;48.738;9.228;2022-10-15T13:21:46;17.00;99.90
336;DHT22;156;48.738;9.228;2022-10-15T13:24:16;16.90;99.90
336;DHT22;156;48.738;9.228;2022-10-15T13:26:43;16.80;99.90
336;DHT22;156;48.738;9.228;2022-10-15T13:29:14;16.80;99.90
336;DHT22;156;48.738;9.228;2022-10-15T13:31:45;16.80;99.90
336;DHT22;156;48.738;9.228;2022-10-15T13:34:21;16.80;99.90
336;DHT22;156;48.738;9.228;2022-10-15T13:36:49;16.80;99.90
336;DHT22;156;48.738;9.228;2022-10-15T13:39:23;16.70;99.90
336;DHT22;156;48.738;9.228;2022-10-15T13:42:02;16.70;99.90
336;DHT22;156;48.738;9.228;2022-10-15T13:44:31;16.70;99.90
336;DHT22;156;48.738;9.228;2022-10-15T13:46:59;16.50;99.90
336;DHT22;156;48.738;9.228;2022-10-15T13:49:30;16.50;99.90
336;DHT22;156;48.738;9.228;2022-10-15T13:52:11;16.50;99.90
336;DHT22;156;48.738;9.228;2022-10-15T13:54:38;16.50;99.90
336;DHT22;156;48.738;9.228;2022-10-15T13:57:14;16.30;99.90
336;DHT22;156;48.738;9.228;2022-10-15T13:59:44;16.30;99.90
336;DHT22;156;48.738;9.228;2022-10-15T14:02:19;16.30;99.90
336;DHT22;156;48.738;9.228;2022-10-15T14:04:49;16.20;99.90
336;DHT22;156;48.738;9.228;2022-10-15T14:07:22;16.20;99.90
336;DHT22;156;48.738;9.228;2022-10-15T14:09:51;16.30;99.90
336;DHT22;156;48.738;9.228;2022-10-15T14:12:21;16.30;99.90
336;DHT22;156;48.738;9.228;2022-10-15T14:14:48;16.30;99.90
336;DHT22;156;48.738;9.228;2022-10-15T14:17:24;16.30;99.90
336;DHT22;156;48.738;9.228;2022-10-15T14:19:55;16.40;99.90
336;DHT22;156;48.738;9.228;2022-10-15T14:22:25;16.40;99.90
336;DHT22;156;48.738;9.228;2022-10-15T14:24:55;16.40;99.90
336;DHT22;156;48.738;9.228;2022-10-15T14:27:24;16.50;99.90
336;DHT22;156;48.738;9.228;2022-10-15T14:29:54;16.50;99.90
336;DHT22;156;48.738;9.228;2022-10-15T14:32:26;16.60;99.90
336;DHT22;156;48.738;9.228;2022-10-15T14:34:54;16.50;99.90
336;DHT22;156;48.738;9.228;2022-10-15T14:37:31;16.60;99.90
336;DHT22;156;48.738;9.228;2022-10-15T14:40:13;16.60;99.90
336;DHT22;156;48.738;9.228;2022-10-15T14:42:43;16.50;99.90
336;DHT22;156;48.738;9.228;2022-10-15T14:45:12;16.60;99.90
336;DHT22;156;48.738;9.228;2022-10-15T14:47:43;16.60;99.90
336;DHT22;156;48.738;9.228;2022-10-15T14:50:11;16.70;99.90
336;DHT22;156;48.738;9.228;2022-10-15T14:52:51;16.70;99.90
336;DHT22;156;48.738;9.228;2022-10-15T14:55:27;16.70;99.90
336;DHT22;156;48.738;9.228;2022-10-15T14:57:59;16.80;99.90
336;DHT22;156;48.738;9.228;2022-10-15T15:00:30;16.80;99.90
336;DHT22;156;48.738;9.228;2022-10-15T15:03:01;16.80;99.90
336;DHT22;156;48.738;9.228;2022-10-15T15:05:29;16.80;99.90
336;DHT22;156;48.738;9.228;2022-10-15T15:07:57;16.80;99.90
336;DHT22;156;48.738;9.228;2022-10-15T15:10:25;16.90;99.90
336;DHT22;156;48.738;9.228;2022-10-15T15:12:54;16.90;99.90
336;DHT22;156;48.738;9.228;2022-10-15T15:15:23;17.00;99.90
336;DHT22;156;48.738;9.228;2022-10-15T15:17:50;17.10;99.90
336;DHT22;156;48.738;9.228;2022-10-15T15:20:19;17.10;99.90
336;DHT22;156;48.738;9.228;2022-10-15T15:22:47;17.20;99.90
336;DHT22;156;48.738;9.228;2022-10-15T15:25:17;17.30;99.90
336;DHT22;156;48.738;9.228;2022-10-15T15:27:47;17.30;99.90
336;DHT22;156;48.738;9.228;2022-10-15T15:30:16;17.30;99.90
336;DHT22;156;48.738;9.228;2022-10-15T15:32:43;17.40;99.90
336;DHT22;156;48.738;9.228;2022-10-15T15:35:23;17.40;99.90
336;DHT22;156;48.738;9.228;2022-10-15T15:37:51;17.40;99.90
336;DHT22;156;48.738;9.228;2022-10-15T15:40:18;17.30;99.90
336;DHT22;156;48.738;9.228;2022-10-15T15:42:48;17.40;99.90
336;DHT22;156;48.738;9.228;2022-10-15T15:45:19;17.50;99.90
336;DHT22;156;48.738;9.228;2022-10-15T15:47:46;17.50;99.90
336;DHT22;156;48.738;9.228;2022-10-15T15:50:14;17.40;99.90
336;DHT22;156;48.738;9.228;2022-10-15T15:52:44;17.40;99.90
336;DHT22;156;48.738;9.228;2022-10-15T15:55:12;17.20;99.90
336;DHT22;156;48.738;9.228;2022-10-15T15:57:40;17.30;99.90
336;DHT22;156;48.738;9.228;2022-10-15T16:00:10;17.30;98.20
336;DHT22;156;48.738;9.228;2022-10-15T16:02:48;17.30;96.70
336;DHT22;156;48.738;9.228;2022-10-15T16:05:15;17.20;97.80
336;DHT22;156;48.738;9.228;2022-10-15T16:07:45;17.10;99.30
336;DHT22;156;48.738;9.228;2022-10-15T16:10:13;16.90;99.90
336;DHT22;156;48.738;9.228;2022-10-15T16:12:41;16.90;99.90
336;DHT22;156;48.738;9.228;2022-10-15T16:15:10;16.80;99.90
336;DHT22;156;48.738;9.228;2022-10-15T16:17:37;16.70;99.90
336;DHT22;156;48.738;9.228;2022-10-15T16:20:12;16.70;99.90
336;DHT22;156;48.738;9.228;2022-10-15T16:22:40;16.70;99.90
336;DHT22;156;48.738;9.228;2022-10-15T16:25:09;16.60;99.90
336;DHT22;156;48.738;9.228;2022-10-15T16:27:36;16.60;99.90
336;DHT22;156;48.738;9.228;2022-10-15T16:30:05;16.60;99.90
336;DHT22;156;48.738;9.228;2022-10-15T16:32:32;16.50;99.90
336;DHT22;156;48.738;9.228;2022-10-15T16:35:06;16.50;99.90
336;DHT22;156;48.738;9.228;2022-10-15T16:37:34;16.50;99.90
336;DHT22;156;48.738;9.228;2022-10-15T16:40:02;16.40;99.90
336;DHT22;156;48.738;9.228;2022-10-15T16:42:33;16.40;99.90
336;DHT22;156;48.738;9.228;2022-10-15T16:45:01;16.40;99.90
336;DHT22;156;48.738;9.228;2022-10-15T16:47:28;16.50;99.90
336;DHT22;156;48.738;9.228;2022-10-15T16:49:57;16.40;99.90
336;DHT22;156;48.738;9.228;2022-10-15T16:52:24;16.50;99.90
336;DHT22;156;48.738;9.228;2022-10-15T16:54:52;16.40;99.90
336;DHT22;156;48.738;9.228;2022-10-15T16:57:19;16.40;99.90
336;DHT22;156;48.738;9.228;2022-10-15T16:59:49;16.40;99.90
336;DHT22;156;48.738;9.228;2022-10-15T17:02:17;16.40;99.90
336;DHT22;156;48.738;9.228;2022-10-15T17:04:44;16.30;99.90
336;DHT22;156;48.738;9.228;2022-10-15T17:07:12;16.30;99.90
336;DHT22;156;48.738;9.228;2022-10-15T17:09:39;16.30;99.90